sensor_id;sensor_type;location;lat;lon;timestamp;temperature;humidity
32522;DHT22;18963;51.504;5.316;2023-02-18T00:01:13;11.10;99.90
32522;DHT22;18963;51.504;5.316;2023-02-18T00:03:39;11.10;99.90
32522;DHT22;18963;51.504;5.316;2023-02-18T00:06:12;11.10;99.90
32522;DHT22;18963;51.504;5.316;2023-02-18T00:08:38;11.10;99.90
32522;DHT22;18963;51.504;5.316;2023-02-18T00:11:05;11.00;99.90
32522;DHT22;18963;51.504;5.316;2023-02-18T00:13:30;11.10;99.90
32522;DHT22;18963;51.504;5.316;2023-02-18T00:15:59;11.10;99.90
32522;DHT22;18963;51.504;5.316;2023-02-18T00:18:25;11.10;99.90
32522;DHT22;18963;51.504;5.316;2023-02-18T00:20:50;11.10;99.90
32522;DHT22;18963;51.504;5.316;2023-02-18T00:23:16;11.10;99.90
32522;DHT22;18963;51.504;5.316;2023-02-18T00:25:41;11.10;99.90
32522;DHT22;18963;51.504;5.316;2023-02-18T00:28:07;11.10;99.90
32522;DHT22;18963;51.504;5.316;2023-02-18T00:30:32;11.10;99.90
32522;DHT22;18963;51.504;5.316;2023-02-18T00:32:58;11.10;99.90
32522;DHT22;18963;51.504;5.316;2023-02-18T00:35:23;11.10;99.90
32522;DHT22;18963;51.504;5.316;2023-02-18T00:37:52;11.10;99.90
32522;DHT22;18963;51.504;5.316;2023-02-18T00:40:18;11.10;99.90
32522;DHT22;18963;51.504;5.316;2023-02-18T00:42:43;11.10;99.90
32522;DHT22;18963;51.504;5.316;2023-02-18T00:45:09;11.10;99.90
32522;DHT22;18963;51.504;5.316;2023-02-18T00:47:34;11.10;99.90
32522;DHT22;18963;51.504;5.316;2023-02-18T00:50:00;11.10;99.90
32522;DHT22;18963;51.504;5.316;2023-02-18T00:52:25;11.10;99.90
32522;DHT22;18963;51.504;5.316;2023-02-18T00:54:51;11.10;99.90
32522;DHT22;18963;51.504;5.316;2023-02-18T00:57:16;11.10;99.90
32522;DHT22;18963;51.504;5.316;2023-02-18T00:59:42;11.10;99.90
32522;DHT22;18963;51.504;5.316;2023-02-18T01:02:07;11.10;99.90
32522;DHT22;18963;51.504;5.316;2023-02-18T01:04:33;11.10;99.90
32522;DHT22;18963;51.504;5.316;2023-02-18T01:06:58;11.10;99.90
32522;DHT22;18963;51.504;5.316;2023-02-18T01:09:24;11.00;99.90
32522;DHT22;18963;51.504;5.316;2023-02-18T01:11:50;11.10;99.90
32522;DHT22;18963;51.504;5.316;2023-02-18T01:14:15;11.10;99.90
32522;DHT22;18963;51.504;5.316;2023-02-18T01:16:41;11.00;99.90
32522;DHT22;18963;51.504;5.316;2023-02-18T01:19:06;11.00;99.90
32522;DHT22;18963;51.504;5.316;2023-02-18T01:21:32;11.00;99.90
32522;DHT22;18963;51.504;5.316;2023-02-18T01:23:57;11.00;99.90
32522;DHT22;18963;51.504;5.316;2023-02-18T01:26:23;11.00;99.90
32522;DHT22;18963;51.504;5.316;2023-02-18T01:28:49;11.00;99.90
32522;DHT22;18963;51.504;5.316;2023-02-18T01:31:15;11.00;99.90
32522;DHT22;18963;51.504;5.316;2023-02-18T01:33:40;11.00;99.90
32522;DHT22;18963;51.504;5.316;2023-02-18T01:36:06;10.90;99.90
32522;DHT22;18963;51.504;5.316;2023-02-18T01:38:32;10.90;99.90
32522;DHT22;18963;51.504;5.316;2023-02-18T01:40:57;10.90;99.90
32522;DHT22;18963;51.504;5.316;2023-02-18T01:43:23;10.90;99.90
32522;DHT22;18963;51.504;5.316;2023-02-18T01:45:50;10.90;99.90
32522;DHT22;18963;51.504;5.316;2023-02-18T01:48:36;10.90;99.90
32522;DHT22;18963;51.504;5.316;2023-02-18T01:53:37;10.90;99.90
32522;DHT22;18963;51.504;5.316;2023-02-18T01:56:04;10.80;99.90
32522;DHT22;18963;51.504;5.316;2023-02-18T01:58:30;10.80;99.90
32522;DHT22;18963;51.504;5.316;2023-02-18T02:00:56;10.80;99.90
32522;DHT22;18963;51.504;5.316;2023-02-18T02:03:22;10.80;99.90
32522;DHT22;18963;51.504;5.316;2023-02-18T02:05:47;10.80;99.90
32522;DHT22;18963;51.504;5.316;2023-02-18T02:08:13;10.80;99.90
32522;DHT22;18963;51.504;5.316;2023-02-18T02:10:45;10.70;99.90
32522;DHT22;18963;51.504;5.316;2023-02-18T02:13:15;10.70;99.90
32522;DHT22;18963;51.504;5.316;2023-02-18T02:15:48;10.70;99.90
32522;DHT22;18963;51.504;5.316;2023-02-18T02:18:17;10.70;99.90
32522;DHT22;18963;51.504;5.316;2023-02-18T02:23:44;10.70;99.90
32522;DHT22;18963;51.504;5.316;2023-02-18T02:36:34;10.60;99.90
32522;DHT22;18963;51.504;5.316;2023-02-18T02:41:44;10.60;99.90
32522;DHT22;18963;51.504;5.316;2023-02-18T02:44:21;10.60;99.90
32522;DHT22;18963;51.504;5.316;2023-02-18T02:46:52;10.60;99.90
32522;DHT22;18963;51.504;5.316;2023-02-18T02:49:56;10.60;99.90
32522;DHT22;18963;51.504;5.316;2023-02-18T02:52:19;10.60;99.90
32522;DHT22;18963;51.504;5.316;2023-02-18T02:54:46;10.60;99.90
32522;DHT22;18963;51.504;5.316;2023-02-18T02:59:38;10.60;99.90
32522;DHT22;18963;51.504;5.316;2023-02-18T03:04:46;10.60;99.90
32522;DHT22;18963;51.504;5.316;2023-02-18T03:12:24;10.60;99.90
32522;DHT22;18963;51.504;5.316;2023-02-18T03:15:19;10.60;99.90
32522;DHT22;18963;51.504;5.316;2023-02-18T03:20:10;10.60;99.90
32522;DHT22;18963;51.504;5.316;2023-02-18T03:22:38;10.50;99.90
32522;DHT22;18963;51.504;5.316;2023-02-18T03:25:05;10.50;99.90
32522;DHT22;18963;51.504;5.316;2023-02-18T03:30:25;10.50;99.90
32522;DHT22;18963;51.504;5.316;2023-02-18T03:32:52;10.50;99.90
32522;DHT22;18963;51.504;5.316;2023-02-18T03:35:20;10.50;99.90
32522;DHT22;18963;51.504;5.316;2023-02-18T03:37:47;10.50;99.90
32522;DHT22;18963;51.504;5.316;2023-02-18T03:40:14;10.50;99.90
32522;DHT22;18963;51.504;5.316;2023-02-18T03:42:41;10.50;99.90
32522;DHT22;18963;51.504;5.316;2023-02-18T03:45:06;10.50;99.90
32522;DHT22;18963;51.504;5.316;2023-02-18T03:47:32;10.40;99.90
32522;DHT22;18963;51.504;5.316;2023-02-18T03:49:58;10.40;99.90
32522;DHT22;18963;51.504;5.316;2023-02-18T03:52:23;10.40;99.90
32522;DHT22;18963;51.504;5.316;2023-02-18T03:54:49;10.40;99.90
32522;DHT22;18963;51.504;5.316;2023-02-18T03:57:15;10.40;99.90
32522;DHT22;18963;51.504;5.316;2023-02-18T03:59:40;10.40;99.90
32522;DHT22;18963;51.504;5.316;2023-02-18T04:02:06;10.40;99.90
32522;DHT22;18963;51.504;5.316;2023-02-18T04:04:31;10.40;99.90
32522;DHT22;18963;51.504;5.316;2023-02-18T04:06:57;10.40;99.90
32522;DHT22;18963;51.504;5.316;2023-02-18T04:09:22;10.40;99.90
32522;DHT22;18963;51.504;5.316;2023-02-18T04:11:48;10.40;99.90
32522;DHT22;18963;51.504;5.316;2023-02-18T04:14:13;10.40;99.90
32522;DHT22;18963;51.504;5.316;2023-02-18T04:16:39;10.40;99.90
32522;DHT22;18963;51.504;5.316;2023-02-18T04:19:05;10.40;99.90
32522;DHT22;18963;51.504;5.316;2023-02-18T04:21:30;10.40;99.90
32522;DHT22;18963;51.504;5.316;2023-02-18T04:23:56;10.30;99.90
32522;DHT22;18963;51.504;5.316;2023-02-18T04:26:21;10.30;99.90
32522;DHT22;18963;51.504;5.316;2023-02-18T04:28:47;10.30;99.90
32522;DHT22;18963;51.504;5.316;2023-02-18T04:31:12;10.30;99.90
32522;DHT22;18963;51.504;5.316;2023-02-18T04:33:39;10.30;99.90
32522;DHT22;18963;51.504;5.316;2023-02-18T04:36:05;10.30;99.90
32522;DHT22;18963;51.504;5.316;2023-02-18T04:38:30;10.30;99.90
32522;DHT22;18963;51.504;5.316;2023-02-18T04:40:56;10.30;99.90
32522;DHT22;18963;51.504;5.316;2023-02-18T04:43:21;10.30;99.90
32522;DHT22;18963;51.504;5.316;2023-02-18T04:45:47;10.30;99.90
32522;DHT22;18963;51.504;5.316;2023-02-18T04:48:12;10.30;99.90
32522;DHT22;18963;51.504;5.316;2023-02-18T04:50:38;10.30;99.90
32522;DHT22;18963;51.504;5.316;2023-02-18T04:53:03;10.30;99.90
32522;DHT22;18963;51.504;5.316;2023-02-18T04:55:29;10.30;99.90
32522;DHT22;18963;51.504;5.316;2023-02-18T04:57:54;10.30;99.90
32522;DHT22;18963;51.504;5.316;2023-02-18T05:00:20;10.30;99.90
32522;DHT22;18963;51.504;5.316;2023-02-18T05:02:45;10.30;99.90
32522;DHT22;18963;51.504;5.316;2023-02-18T05:05:12;10.30;99.90
32522;DHT22;18963;51.504;5.316;2023-02-18T05:07:37;10.30;99.90
32522;DHT22;18963;51.504;5.316;2023-02-18T05:10:03;10.20;99.90
32522;DHT22;18963;51.504;5.316;2023-02-18T05:12:29;10.20;99.90
32522;DHT22;18963;51.504;5.316;2023-02-18T05:14:54;10.20;99.90
32522;DHT22;18963;51.504;5.316;2023-02-18T05:17:20;10.20;99.90
32522;DHT22;18963;51.504;5.316;2023-02-18T05:19:45;10.20;99.90
32522;DHT22;18963;51.504;5.316;2023-02-18T05:22:10;10.20;99.90
32522;DHT22;18963;51.504;5.316;2023-02-18T05:24:36;10.20;99.90
32522;DHT22;18963;51.504;5.316;2023-02-18T05:27:01;10.20;99.90
32522;DHT22;18963;51.504;5.316;2023-02-18T05:29:27;10.20;99.90
32522;DHT22;18963;51.504;5.316;2023-02-18T05:31:52;10.20;99.90
32522;DHT22;18963;51.504;5.316;2023-02-18T05:34:18;10.20;99.90
32522;DHT22;18963;51.504;5.316;2023-02-18T05:36:43;10.20;99.90
32522;DHT22;18963;51.504;5.316;2023-02-18T05:39:09;10.20;99.90
32522;DHT22;18963;51.504;5.316;2023-02-18T05:41:34;10.20;99.90
32522;DHT22;18963;51.504;5.316;2023-02-18T05:44:00;10.20;99.90
32522;DHT22;18963;51.504;5.316;2023-02-18T05:46:44;10.20;99.90
32522;DHT22;18963;51.504;5.316;2023-02-18T05:49:09;10.20;99.90
32522;DHT22;18963;51.504;5.316;2023-02-18T05:51:35;10.20;99.90
32522;DHT22;18963;51.504;5.316;2023-02-18T05:54:01;10.20;99.90
32522;DHT22;18963;51.504;5.316;2023-02-18T05:56:26;10.20;99.90
32522;DHT22;18963;51.504;5.316;2023-02-18T05:58:52;10.20;99.90
32522;DHT22;18963;51.504;5.316;2023-02-18T06:01:17;10.20;99.90
32522;DHT22;18963;51.504;5.316;2023-02-18T06:03:43;10.20;99.90
32522;DHT22;18963;51.504;5.316;2023-02-18T06:06:08;10.20;99.90
32522;DHT22;18963;51.504;5.316;2023-02-18T06:08:34;10.20;99.90
32522;DHT22;18963;51.504;5.316;2023-02-18T06:10:59;10.20;99.90
32522;DHT22;18963;51.504;5.316;2023-02-18T06:13:25;10.20;99.90
32522;DHT22;18963;51.504;5.316;2023-02-18T06:15:51;10.20;99.90
32522;DHT22;18963;51.504;5.316;2023-02-18T06:18:16;10.10;99.90
32522;DHT22;18963;51.504;5.316;2023-02-18T06:20:42;10.10;99.90
32522;DHT22;18963;51.504;5.316;2023-02-18T06:23:07;10.10;99.90
32522;DHT22;18963;51.504;5.316;2023-02-18T06:25:33;10.10;99.90
32522;DHT22;18963;51.504;5.316;2023-02-18T06:27:58;10.10;99.90
32522;DHT22;18963;51.504;5.316;2023-02-18T06:30:24;10.10;99.90
32522;DHT22;18963;51.504;5.316;2023-02-18T06:32:49;10.10;99.90
32522;DHT22;18963;51.504;5.316;2023-02-18T06:35:15;10.10;99.90
32522;DHT22;18963;51.504;5.316;2023-02-18T06:37:40;10.10;99.90
32522;DHT22;18963;51.504;5.316;2023-02-18T06:40:06;10.10;99.90
32522;DHT22;18963;51.504;5.316;2023-02-18T06:42:32;10.10;99.90
32522;DHT22;18963;51.504;5.316;2023-02-18T06:44:57;10.10;99.90
32522;DHT22;18963;51.504;5.316;2023-02-18T06:47:23;10.00;99.90
32522;DHT22;18963;51.504;5.316;2023-02-18T06:49:48;10.00;99.90
32522;DHT22;18963;51.504;5.316;2023-02-18T06:52:14;10.10;99.90
32522;DHT22;18963;51.504;5.316;2023-02-18T06:54:39;10.00;99.90
32522;DHT22;18963;51.504;5.316;2023-02-18T06:57:04;10.00;99.90
32522;DHT22;18963;51.504;5.316;2023-02-18T06:59:30;10.00;99.90
32522;DHT22;18963;51.504;5.316;2023-02-18T07:01:55;10.00;99.90
32522;DHT22;18963;51.504;5.316;2023-02-18T07:04:21;10.00;99.90
32522;DHT22;18963;51.504;5.316;2023-02-18T07:06:47;10.00;99.90
32522;DHT22;18963;51.504;5.316;2023-02-18T07:09:12;10.00;99.90
32522;DHT22;18963;51.504;5.316;2023-02-18T07:11:38;10.00;99.90
32522;DHT22;18963;51.504;5.316;2023-02-18T07:14:03;10.00;99.90
32522;DHT22;18963;51.504;5.316;2023-02-18T07:16:28;10.00;99.90
32522;DHT22;18963;51.504;5.316;2023-02-18T07:18:54;10.00;99.90
32522;DHT22;18963;51.504;5.316;2023-02-18T07:21:19;10.00;99.90
32522;DHT22;18963;51.504;5.316;2023-02-18T07:23:45;9.90;99.90
32522;DHT22;18963;51.504;5.316;2023-02-18T07:26:11;9.90;99.90
32522;DHT22;18963;51.504;5.316;2023-02-18T07:28:37;9.90;99.90
32522;DHT22;18963;51.504;5.316;2023-02-18T07:31:03;9.80;99.90
32522;DHT22;18963;51.504;5.316;2023-02-18T07:33:28;9.80;99.90
32522;DHT22;18963;51.504;5.316;2023-02-18T07:35:55;9.80;99.90
32522;DHT22;18963;51.504;5.316;2023-02-18T07:38:21;9.80;99.90
32522;DHT22;18963;51.504;5.316;2023-02-18T07:40:47;9.80;99.90
32522;DHT22;18963;51.504;5.316;2023-02-18T07:43:12;9.70;99.90
32522;DHT22;18963;51.504;5.316;2023-02-18T07:45:38;9.70;99.90
32522;DHT22;18963;51.504;5.316;2023-02-18T07:48:04;9.70;99.90
32522;DHT22;18963;51.504;5.316;2023-02-18T07:50:29;9.70;99.90
32522;DHT22;18963;51.504;5.316;2023-02-18T07:52:59;9.70;99.90
32522;DHT22;18963;51.504;5.316;2023-02-18T07:55:25;9.60;99.90
32522;DHT22;18963;51.504;5.316;2023-02-18T07:58:10;9.60;99.90
32522;DHT22;18963;51.504;5.316;2023-02-18T08:00:36;9.70;99.90
32522;DHT22;18963;51.504;5.316;2023-02-18T08:03:02;9.60;99.90
32522;DHT22;18963;51.504;5.316;2023-02-18T08:05:27;9.70;99.90
32522;DHT22;18963;51.504;5.316;2023-02-18T08:07:53;9.70;99.90
32522;DHT22;18963;51.504;5.316;2023-02-18T08:10:18;9.70;99.90
32522;DHT22;18963;51.504;5.316;2023-02-18T08:12:44;9.70;99.90
32522;DHT22;18963;51.504;5.316;2023-02-18T08:15:09;9.70;99.90
32522;DHT22;18963;51.504;5.316;2023-02-18T08:17:35;9.80;99.90
32522;DHT22;18963;51.504;5.316;2023-02-18T08:20:00;9.80;99.90
32522;DHT22;18963;51.504;5.316;2023-02-18T08:22:26;9.90;99.90
32522;DHT22;18963;51.504;5.316;2023-02-18T08:24:54;9.90;99.90
32522;DHT22;18963;51.504;5.316;2023-02-18T08:27:20;10.00;99.90
32522;DHT22;18963;51.504;5.316;2023-02-18T08:29:46;10.10;99.90
32522;DHT22;18963;51.504;5.316;2023-02-18T08:32:11;10.10;99.90
32522;DHT22;18963;51.504;5.316;2023-02-18T08:34:37;10.20;99.90
32522;DHT22;18963;51.504;5.316;2023-02-18T08:37:03;10.30;99.90
32522;DHT22;18963;51.504;5.316;2023-02-18T08:39:33;10.30;99.90
32522;DHT22;18963;51.504;5.316;2023-02-18T08:41:58;10.40;99.90
32522;DHT22;18963;51.504;5.316;2023-02-18T08:44:24;10.40;99.90
32522;DHT22;18963;51.504;5.316;2023-02-18T08:46:49;10.40;99.90
32522;DHT22;18963;51.504;5.316;2023-02-18T08:49:15;10.50;99.90
32522;DHT22;18963;51.504;5.316;2023-02-18T08:51:41;10.60;99.90
32522;DHT22;18963;51.504;5.316;2023-02-18T08:54:06;10.60;99.90
32522;DHT22;18963;51.504;5.316;2023-02-18T08:56:32;10.50;99.90
32522;DHT22;18963;51.504;5.316;2023-02-18T08:58:57;10.50;99.90
32522;DHT22;18963;51.504;5.316;2023-02-18T09:01:23;10.50;99.90
32522;DHT22;18963;51.504;5.316;2023-02-18T09:03:48;10.50;99.90
32522;DHT22;18963;51.504;5.316;2023-02-18T09:06:14;10.50;99.90
32522;DHT22;18963;51.504;5.316;2023-02-18T09:08:39;10.50;99.90
32522;DHT22;18963;51.504;5.316;2023-02-18T09:11:05;10.50;99.90
32522;DHT22;18963;51.504;5.316;2023-02-18T09:13:31;10.50;99.90
32522;DHT22;18963;51.504;5.316;2023-02-18T09:18:22;10.40;99.90
32522;DHT22;18963;51.504;5.316;2023-02-18T09:20:48;10.40;99.90
32522;DHT22;18963;51.504;5.316;2023-02-18T09:23:14;10.40;99.90
32522;DHT22;18963;51.504;5.316;2023-02-18T09:25:40;10.40;99.90
32522;DHT22;18963;51.504;5.316;2023-02-18T09:28:05;10.30;99.90
32522;DHT22;18963;51.504;5.316;2023-02-18T09:30:30;10.30;99.90
32522;DHT22;18963;51.504;5.316;2023-02-18T09:32:56;10.30;99.90
32522;DHT22;18963;51.504;5.316;2023-02-18T09:35:21;10.20;99.90
32522;DHT22;18963;51.504;5.316;2023-02-18T09:37:47;10.20;99.90
32522;DHT22;18963;51.504;5.316;2023-02-18T09:40:26;10.20;99.90
32522;DHT22;18963;51.504;5.316;2023-02-18T09:42:54;10.20;99.90
32522;DHT22;18963;51.504;5.316;2023-02-18T09:45:20;10.10;99.90
32522;DHT22;18963;51.504;5.316;2023-02-18T09:47:46;10.10;99.90
32522;DHT22;18963;51.504;5.316;2023-02-18T09:50:19;10.10;99.90
32522;DHT22;18963;51.504;5.316;2023-02-18T09:52:45;10.10;99.90
32522;DHT22;18963;51.504;5.316;2023-02-18T09:58:01;10.10;99.90
32522;DHT22;18963;51.504;5.316;2023-02-18T10:00:38;10.10;99.90
32522;DHT22;18963;51.504;5.316;2023-02-18T10:03:05;10.10;99.90
32522;DHT22;18963;51.504;5.316;2023-02-18T10:05:32;10.10;99.90
32522;DHT22;18963;51.504;5.316;2023-02-18T10:08:03;10.10;99.90
32522;DHT22;18963;51.504;5.316;2023-02-18T10:10:37;10.20;99.90
32522;DHT22;18963;51.504;5.316;2023-02-18T10:13:14;10.20;99.90
32522;DHT22;18963;51.504;5.316;2023-02-18T10:15:40;10.20;99.90
32522;DHT22;18963;51.504;5.316;2023-02-18T10:18:07;10.30;99.90
32522;DHT22;18963;51.504;5.316;2023-02-18T10:20:35;10.30;99.90
32522;DHT22;18963;51.504;5.316;2023-02-18T10:23:01;10.40;99.90
32522;DHT22;18963;51.504;5.316;2023-02-18T10:25:29;10.40;99.90
32522;DHT22;18963;51.504;5.316;2023-02-18T10:27:55;10.40;99.90
32522;DHT22;18963;51.504;5.316;2023-02-18T10:30:23;10.40;99.90
32522;DHT22;18963;51.504;5.316;2023-02-18T10:32:56;10.40;99.90
32522;DHT22;18963;51.504;5.316;2023-02-18T10:50:39;10.70;99.90
32522;DHT22;18963;51.504;5.316;2023-02-18T10:53:47;10.70;99.90
32522;DHT22;18963;51.504;5.316;2023-02-18T10:55:53;10.70;99.90
32522;DHT22;18963;51.504;5.316;2023-02-18T11:04:02;10.80;99.90
32522;DHT22;18963;51.504;5.316;2023-02-18T11:08:54;10.80;99.90
32522;DHT22;18963;51.504;5.316;2023-02-18T11:11:24;10.80;99.90
32522;DHT22;18963;51.504;5.316;2023-02-18T11:13:52;10.80;99.90
32522;DHT22;18963;51.504;5.316;2023-02-18T11:16:20;10.90;99.90
32522;DHT22;18963;51.504;5.316;2023-02-18T11:18:46;10.90;99.90
32522;DHT22;18963;51.504;5.316;2023-02-18T11:21:23;10.90;99.90
32522;DHT22;18963;51.504;5.316;2023-02-18T11:23:51;10.90;99.90
32522;DHT22;18963;51.504;5.316;2023-02-18T11:26:20;10.90;99.90
32522;DHT22;18963;51.504;5.316;2023-02-18T11:28:50;10.90;99.90
32522;DHT22;18963;51.504;5.316;2023-02-18T11:31:18;11.00;99.90
32522;DHT22;18963;51.504;5.316;2023-02-18T11:33:47;11.00;99.90
32522;DHT22;18963;51.504;5.316;2023-02-18T11:36:17;11.00;99.90
32522;DHT22;18963;51.504;5.316;2023-02-18T11:38:48;11.00;99.90
32522;DHT22;18963;51.504;5.316;2023-02-18T11:41:15;11.10;99.90
32522;DHT22;18963;51.504;5.316;2023-02-18T11:43:44;11.10;99.90
32522;DHT22;18963;51.504;5.316;2023-02-18T11:46:13;11.10;99.90
32522;DHT22;18963;51.504;5.316;2023-02-18T11:48:39;11.20;99.90
32522;DHT22;18963;51.504;5.316;2023-02-18T11:51:05;11.20;99.90
32522;DHT22;18963;51.504;5.316;2023-02-18T11:53:37;11.30;99.90
32522;DHT22;18963;51.504;5.316;2023-02-18T11:56:04;11.30;99.90
32522;DHT22;18963;51.504;5.316;2023-02-18T11:58:35;11.40;99.90
32522;DHT22;18963;51.504;5.316;2023-02-18T12:01:02;11.40;99.90
32522;DHT22;18963;51.504;5.316;2023-02-18T12:03:43;11.40;99.90
32522;DHT22;18963;51.504;5.316;2023-02-18T12:06:15;11.40;99.90
32522;DHT22;18963;51.504;5.316;2023-02-18T12:11:27;11.50;99.90
32522;DHT22;18963;51.504;5.316;2023-02-18T12:13:55;11.50;99.90
32522;DHT22;18963;51.504;5.316;2023-02-18T12:21:51;11.90;99.90
32522;DHT22;18963;51.504;5.316;2023-02-18T12:27:09;12.30;99.90
32522;DHT22;18963;51.504;5.316;2023-02-18T12:42:59;12.40;99.90
32522;DHT22;18963;51.504;5.316;2023-02-18T13:03:30;12.10;99.90
32522;DHT22;18963;51.504;5.316;2023-02-18T13:16:24;12.30;99.90
32522;DHT22;18963;51.504;5.316;2023-02-18T13:21:16;12.30;99.90
32522;DHT22;18963;51.504;5.316;2023-02-18T13:23:45;12.30;99.90
32522;DHT22;18963;51.504;5.316;2023-02-18T13:26:12;12.30;99.90
32522;DHT22;18963;51.504;5.316;2023-02-18T13:33:38;12.30;99.90
32522;DHT22;18963;51.504;5.316;2023-02-18T13:38:50;12.40;99.90
32522;DHT22;18963;51.504;5.316;2023-02-18T13:41:17;12.50;99.90
32522;DHT22;18963;51.504;5.316;2023-02-18T13:43:43;12.60;99.90
32522;DHT22;18963;51.504;5.316;2023-02-18T13:46:16;12.70;99.90
32522;DHT22;18963;51.504;5.316;2023-02-18T13:49:05;12.80;99.90
32522;DHT22;18963;51.504;5.316;2023-02-18T13:51:29;12.90;99.90
32522;DHT22;18963;51.504;5.316;2023-02-18T13:54:00;13.00;99.90
32522;DHT22;18963;51.504;5.316;2023-02-18T13:56:31;13.00;99.90
32522;DHT22;18963;51.504;5.316;2023-02-18T13:59:05;13.10;99.90
32522;DHT22;18963;51.504;5.316;2023-02-18T14:01:42;13.20;99.90
32522;DHT22;18963;51.504;5.316;2023-02-18T14:09:44;13.30;99.90
32522;DHT22;18963;51.504;5.316;2023-02-18T14:14:57;13.30;99.90
32522;DHT22;18963;51.504;5.316;2023-02-18T14:22:32;13.20;99.90
32522;DHT22;18963;51.504;5.316;2023-02-18T14:27:33;13.20;99.90
32522;DHT22;18963;51.504;5.316;2023-02-18T14:30:17;13.20;99.90
32522;DHT22;18963;51.504;5.316;2023-02-18T14:32:47;13.10;99.90
32522;DHT22;18963;51.504;5.316;2023-02-18T14:43:14;12.80;99.90
32522;DHT22;18963;51.504;5.316;2023-02-18T14:51:15;12.70;99.90
32522;DHT22;18963;51.504;5.316;2023-02-18T14:53:42;12.60;99.90
32522;DHT22;18963;51.504;5.316;2023-02-18T14:56:09;12.50;99.90
32522;DHT22;18963;51.504;5.316;2023-02-18T14:58:37;12.50;99.90
32522;DHT22;18963;51.504;5.316;2023-02-18T15:01:12;12.40;99.90
32522;DHT22;18963;51.504;5.316;2023-02-18T15:03:40;12.40;99.90
32522;DHT22;18963;51.504;5.316;2023-02-18T15:06:20;12.40;99.90
32522;DHT22;18963;51.504;5.316;2023-02-18T15:08:46;12.30;99.90
32522;DHT22;18963;51.504;5.316;2023-02-18T15:11:12;12.30;99.90
32522;DHT22;18963;51.504;5.316;2023-02-18T15:13:40;12.30;99.90
32522;DHT22;18963;51.504;5.316;2023-02-18T15:16:11;12.30;99.90
32522;DHT22;18963;51.504;5.316;2023-02-18T15:18:43;12.20;99.90
32522;DHT22;18963;51.504;5.316;2023-02-18T15:23:53;12.30;99.90
32522;DHT22;18963;51.504;5.316;2023-02-18T15:26:19;12.30;99.90
32522;DHT22;18963;51.504;5.316;2023-02-18T15:31:37;12.30;99.90
32522;DHT22;18963;51.504;5.316;2023-02-18T15:36:53;12.40;99.90
32522;DHT22;18963;51.504;5.316;2023-02-18T15:39:19;12.40;99.90
32522;DHT22;18963;51.504;5.316;2023-02-18T15:41:44;12.40;99.90
32522;DHT22;18963;51.504;5.316;2023-02-18T15:44:21;12.30;99.90
32522;DHT22;18963;51.504;5.316;2023-02-18T15:46:47;12.30;99.90
32522;DHT22;18963;51.504;5.316;2023-02-18T15:49:17;12.30;99.90
32522;DHT22;18963;51.504;5.316;2023-02-18T15:51:44;12.20;99.90
32522;DHT22;18963;51.504;5.316;2023-02-18T15:54:17;12.20;99.90
32522;DHT22;18963;51.504;5.316;2023-02-18T15:56:45;12.20;99.90
32522;DHT22;18963;51.504;5.316;2023-02-18T16:01:39;12.20;99.90
32522;DHT22;18963;51.504;5.316;2023-02-18T16:04:04;12.10;99.90
32522;DHT22;18963;51.504;5.316;2023-02-18T16:06:30;12.10;99.90
32522;DHT22;18963;51.504;5.316;2023-02-18T16:11:44;12.00;99.90
32522;DHT22;18963;51.504;5.316;2023-02-18T16:17:06;11.90;99.90
32522;DHT22;18963;51.504;5.316;2023-02-18T16:19:32;11.80;99.90
32522;DHT22;18963;51.504;5.316;2023-02-18T16:22:02;11.80;99.90
32522;DHT22;18963;51.504;5.316;2023-02-18T16:24:29;11.70;99.90
32522;DHT22;18963;51.504;5.316;2023-02-18T16:26:57;11.60;99.90
32522;DHT22;18963;51.504;5.316;2023-02-18T16:29:24;11.60;99.90
32522;DHT22;18963;51.504;5.316;2023-02-18T16:31:50;11.50;99.90
32522;DHT22;18963;51.504;5.316;2023-02-18T16:34:15;11.50;99.90
32522;DHT22;18963;51.504;5.316;2023-02-18T16:36:41;11.50;99.90
32522;DHT22;18963;51.504;5.316;2023-02-18T16:39:27;11.40;99.90
32522;DHT22;18963;51.504;5.316;2023-02-18T16:41:53;11.40;99.90
32522;DHT22;18963;51.504;5.316;2023-02-18T16:44:18;11.30;99.90
32522;DHT22;18963;51.504;5.316;2023-02-18T16:46:44;11.30;99.90
32522;DHT22;18963;51.504;5.316;2023-02-18T16:49:11;11.30;99.90
32522;DHT22;18963;51.504;5.316;2023-02-18T16:51:37;11.20;99.90
32522;DHT22;18963;51.504;5.316;2023-02-18T16:54:03;11.20;99.90
32522;DHT22;18963;51.504;5.316;2023-02-18T16:56:32;11.20;99.90
32522;DHT22;18963;51.504;5.316;2023-02-18T16:58:59;11.10;99.90
32522;DHT22;18963;51.504;5.316;2023-02-18T17:01:32;11.00;99.90
32522;DHT22;18963;51.504;5.316;2023-02-18T17:03:59;11.00;99.90
32522;DHT22;18963;51.504;5.316;2023-02-18T17:06:24;11.00;99.90
32522;DHT22;18963;51.504;5.316;2023-02-18T17:08:50;10.90;99.90
32522;DHT22;18963;51.504;5.316;2023-02-18T17:11:21;10.90;99.90
32522;DHT22;18963;51.504;5.316;2023-02-18T17:13:47;10.90;99.90
32522;DHT22;18963;51.504;5.316;2023-02-18T17:16:13;10.80;99.90
32522;DHT22;18963;51.504;5.316;2023-02-18T17:18:39;10.80;99.90
32522;DHT22;18963;51.504;5.316;2023-02-18T17:21:08;10.70;99.90
32522;DHT22;18963;51.504;5.316;2023-02-18T17:23:35;10.70;99.90
32522;DHT22;18963;51.504;5.316;2023-02-18T17:26:00;10.70;99.90
32522;DHT22;18963;51.504;5.316;2023-02-18T17:28:26;10.70;99.90
32522;DHT22;18963;51.504;5.316;2023-02-18T17:30:52;10.60;99.90
32522;DHT22;18963;51.504;5.316;2023-02-18T17:33:20;10.60;99.90
32522;DHT22;18963;51.504;5.316;2023-02-18T17:35:46;10.60;99.90
32522;DHT22;18963;51.504;5.316;2023-02-18T17:38:13;10.60;99.90
32522;DHT22;18963;51.504;5.316;2023-02-18T17:40:39;10.60;99.90
32522;DHT22;18963;51.504;5.316;2023-02-18T17:43:04;10.60;99.90
32522;DHT22;18963;51.504;5.316;2023-02-18T17:45:38;10.50;99.90
32522;DHT22;18963;51.504;5.316;2023-02-18T17:48:04;10.50;99.90
32522;DHT22;18963;51.504;5.316;2023-02-18T17:50:30;10.50;99.90
32522;DHT22;18963;51.504;5.316;2023-02-18T17:52:56;10.50;99.90
32522;DHT22;18963;51.504;5.316;2023-02-18T17:55:23;10.50;99.90
32522;DHT22;18963;51.504;5.316;2023-02-18T17:57:49;10.50;99.90
32522;DHT22;18963;51.504;5.316;2023-02-18T18:00:16;10.50;99.90
32522;DHT22;18963;51.504;5.316;2023-02-18T18:02:42;10.50;99.90
32522;DHT22;18963;51.504;5.316;2023-02-18T18:05:15;10.50;99.90
32522;DHT22;18963;51.504;5.316;2023-02-18T18:07:41;10.50;99.90
32522;DHT22;18963;51.504;5.316;2023-02-18T18:10:06;10.50;99.90
32522;DHT22;18963;51.504;5.316;2023-02-18T18:12:33;10.50;99.90
32522;DHT22;18963;51.504;5.316;2023-02-18T18:14:59;10.50;99.90
32522;DHT22;18963;51.504;5.316;2023-02-18T18:17:27;10.50;99.90
32522;DHT22;18963;51.504;5.316;2023-02-18T18:19:52;10.50;99.90
32522;DHT22;18963;51.504;5.316;2023-02-18T18:22:18;10.50;99.90
32522;DHT22;18963;51.504;5.316;2023-02-18T18:24:43;10.50;99.90